Time;durP1;ratioP1;P1;durP2;ratioP2;P2;SDS_P1;SDS_P2;PMS_P1;PMS_P2;Temp;Humidity;BMP_temperature;BMP_pressure;BME280_temperature;BME280_humidity;BME280_pressure;Samples;Min_cycle;Max_cycle;Signal;HPM_P1;HPM_P2
2023/07/01 00:01:40;;;;;;;0.20;0.20;;;15.50;99.90;;;;;;5034541;28;20049;-90
2023/07/01 00:04:05;;;;;;;0.10;0.10;;;15.50;99.90;;;;;;5017828;28;20022;-89
2023/07/01 00:06:31;;;;;;;0.15;0.10;;;15.50;99.90;;;;;;5018305;28;20049;-90
2023/07/01 00:08:57;;;;;;;0.30;0.30;;;15.50;99.90;;;;;;5034609;28;20021;-90
2023/07/01 00:11:23;;;;;;;0.30;0.30;;;15.40;99.90;;;;;;5030601;28;20038;-89
2023/07/01 00:13:49;;;;;;;2.67;0.38;;;15.40;99.90;;;;;;5015815;28;20481;-88
2023/07/01 00:16:14;;;;;;;0.52;0.20;;;15.40;99.90;;;;;;5017682;28;20061;-89
2023/07/01 00:18:41;;;;;;;0.22;0.22;;;15.40;99.90;;;;;;5013560;28;20036;-88
2023/07/01 00:21:07;;;;;;;0.70;0.30;;;15.40;99.90;;;;;;5013614;28;20104;-89
2023/07/01 00:23:33;;;;;;;0.98;0.73;;;15.40;99.90;;;;;;5013656;28;20026;-89
2023/07/01 00:25:59;;;;;;;0.43;0.43;;;15.30;99.90;;;;;;4996052;28;20026;-90
2023/07/01 00:28:25;;;;;;;1.40;0.93;;;15.30;99.90;;;;;;5021853;28;20029;-90
2023/07/01 00:30:51;;;;;;;1.05;0.90;;;15.30;99.90;;;;;;5014443;28;20543;-90
2023/07/01 00:33:17;;;;;;;2.80;0.82;;;15.30;99.90;;;;;;5013062;28;20033;-90
2023/07/01 00:35:42;;;;;;;0.88;0.80;;;15.30;99.90;;;;;;5012803;28;20033;-90
2023/07/01 00:38:08;;;;;;;1.15;0.80;;;15.30;99.90;;;;;;5013040;28;20028;-91
2023/07/01 00:40:34;;;;;;;1.35;1.20;;;15.30;99.90;;;;;;5013334;28;20100;-91
2023/07/01 00:43:00;;;;;;;2.72;1.23;;;15.30;99.90;;;;;;4995830;28;20092;-91
2023/07/01 00:45:25;;;;;;;2.88;1.42;;;15.20;99.90;;;;;;5011893;28;20041;-90
2023/07/01 00:47:51;;;;;;;2.60;1.50;;;15.20;99.90;;;;;;4996174;28;20191;-91
2023/07/01 00:50:17;;;;;;;3.92;1.88;;;15.30;99.90;;;;;;5012796;28;20500;-91
2023/07/01 00:52:43;;;;;;;3.80;1.83;;;15.20;99.90;;;;;;5013141;28;20037;-91
2023/07/01 00:55:10;;;;;;;5.47;1.98;;;15.30;99.90;;;;;;4995848;28;20469;-91
2023/07/01 00:57:36;;;;;;;2.83;1.88;;;15.30;99.90;;;;;;4996044;28;20093;-91
2023/07/01 01:00:08;;;;;;;5.32;2.00;;;15.30;99.90;;;;;;5013481;28;20029;-91
2023/07/01 01:02:51;;;;;;;2.63;1.85;;;15.30;99.90;;;;;;4993061;28;20110;-94
2023/07/01 01:05:21;;;;;;;2.47;1.70;;;15.30;99.90;;;;;;4993123;28;20077;-92
2023/07/01 01:08:04;;;;;;;2.83;2.00;;;15.30;99.90;;;;;;4978097;28;20081;-92
2023/07/01 01:10:32;;;;;;;2.88;1.60;;;15.30;99.90;;;;;;4977638;28;20069;-92
2023/07/01 01:13:00;;;;;;;4.10;1.95;;;15.30;99.90;;;;;;4994289;28;20116;-92
2023/07/01 01:15:27;;;;;;;3.42;1.52;;;15.30;99.90;;;;;;4976229;28;20490;-91
2023/07/01 01:17:56;;;;;;;4.68;1.90;;;15.30;99.90;;;;;;4975933;28;20018;-93
2023/07/01 01:20:23;;;;;;;5.22;2.13;;;15.30;99.90;;;;;;4993583;28;20474;-93
2023/07/01 01:22:57;;;;;;;3.28;2.22;;;15.30;99.90;;;;;;4992395;28;20026;-90
2023/07/01 01:25:48;;;;;;;3.25;2.15;;;15.30;99.90;;;;;;4994454;28;20072;-93
2023/07/01 01:28:15;;;;;;;6.53;2.35;;;15.30;99.90;;;;;;4983127;28;20034;-92
2023/07/01 01:30:40;;;;;;;3.92;2.28;;;15.20;99.90;;;;;;5005660;28;20111;-92
2023/07/01 01:33:06;;;;;;;2.13;1.92;;;15.20;99.90;;;;;;4981522;28;20034;-94
2023/07/01 01:35:32;;;;;;;4.63;2.15;;;15.30;99.90;;;;;;4976110;28;20026;-93
2023/07/01 01:38:17;;;;;;;3.55;2.00;;;15.20;99.90;;;;;;4976364;28;20030;-93
2023/07/01 01:40:56;;;;;;;4.68;1.75;;;15.20;99.90;;;;;;4991931;28;20037;-93
2023/07/01 01:43:37;;;;;;;2.05;1.60;;;15.20;99.90;;;;;;4992108;28;20033;-95
2023/07/01 01:46:05;;;;;;;2.17;1.70;;;15.20;99.90;;;;;;4991803;28;20022;-93
2023/07/01 01:48:32;;;;;;;2.05;1.60;;;15.30;99.90;;;;;;4992148;28;20027;-94
2023/07/01 01:51:00;;;;;;;4.00;1.30;;;15.20;99.90;;;;;;4992145;28;20556;-93
2023/07/01 01:53:28;;;;;;;4.07;2.63;;;15.30;99.90;;;;;;4992667;28;20037;-93
2023/07/01 01:55:55;;;;;;;3.13;1.60;;;15.20;99.90;;;;;;4993472;28;20038;-93
2023/07/01 01:58:21;;;;;;;1.60;1.50;;;15.20;99.90;;;;;;4993894;28;20128;-95
2023/07/01 02:00:47;;;;;;;1.55;1.20;;;15.20;99.90;;;;;;4993566;28;20074;-94
2023/07/01 02:03:13;;;;;;;4.38;1.50;;;15.20;99.90;;;;;;4975965;28;20065;-94
2023/07/01 02:05:39;;;;;;;4.55;1.17;;;15.20;99.90;;;;;;4992869;28;20037;-94
2023/07/01 02:08:06;;;;;;;0.95;0.90;;;15.20;99.90;;;;;;4975677;28;20022;-93
2023/07/01 02:10:35;;;;;;;1.45;1.10;;;15.10;99.90;;;;;;4975346;28;20034;-95
2023/07/01 02:13:02;;;;;;;1.20;1.10;;;15.10;99.90;;;;;;4992937;28;20037;-93
2023/07/01 02:15:28;;;;;;;2.67;1.20;;;15.20;99.90;;;;;;4975803;28;20054;-95
2023/07/01 02:17:54;;;;;;;3.83;1.40;;;15.10;99.90;;;;;;4975339;28;20026;-92
2023/07/01 02:20:19;;;;;;;2.95;1.42;;;15.10;99.90;;;;;;4979605;28;20061;-94
2023/07/01 02:22:45;;;;;;;5.05;0.90;;;15.10;99.90;;;;;;4979436;28;20030;-92
2023/07/01 02:25:11;;;;;;;3.75;1.25;;;15.10;99.90;;;;;;4979054;28;20397;-94
2023/07/01 02:27:36;;;;;;;3.13;1.50;;;15.10;99.90;;;;;;4979118;28;20108;-91
2023/07/01 02:30:03;;;;;;;5.72;1.75;;;15.00;99.90;;;;;;5001737;28;20046;-93
2023/07/01 02:32:29;;;;;;;2.28;1.60;;;15.00;99.90;;;;;;5017363;28;20033;-91
2023/07/01 02:34:55;;;;;;;5.85;1.80;;;15.00;99.90;;;;;;5009612;28;20054;-93
2023/07/01 02:37:20;;;;;;;4.88;1.60;;;15.00;99.90;;;;;;5032035;28;20030;-91
2023/07/01 02:39:47;;;;;;;4.45;1.90;;;15.00;99.90;;;;;;5030366;28;20018;-93
2023/07/01 02:42:15;;;;;;;4.65;1.38;;;15.00;99.90;;;;;;5011542;28;20054;-94
2023/07/01 02:44:42;;;;;;;3.42;1.33;;;14.90;99.90;;;;;;5016381;28;20540;-94
2023/07/01 02:47:07;;;;;;;2.92;1.30;;;15.00;99.90;;;;;;5016591;28;20022;-92
2023/07/01 02:49:33;;;;;;;3.03;1.20;;;14.90;99.90;;;;;;5014192;28;20038;-92
2023/07/01 02:51:59;;;;;;;5.35;1.60;;;14.90;99.90;;;;;;5026862;28;20049;-94
2023/07/01 02:54:24;;;;;;;3.20;1.25;;;14.90;99.90;;;;;;5023371;28;20583;-93
2023/07/01 02:56:50;;;;;;;2.83;1.35;;;14.90;99.90;;;;;;5021687;28;20113;-92
2023/07/01 02:59:16;;;;;;;5.32;1.13;;;14.90;99.90;;;;;;5004592;28;20029;-92
2023/07/01 03:01:44;;;;;;;5.63;1.48;;;14.90;99.90;;;;;;5012914;28;20511;-92
2023/07/01 03:04:11;;;;;;;2.90;1.17;;;14.90;99.90;;;;;;5037861;28;20041;-93
2023/07/01 03:06:37;;;;;;;3.45;1.20;;;14.90;99.90;;;;;;5019467;28;20060;-92
2023/07/01 03:09:07;;;;;;;3.30;0.90;;;14.80;99.90;;;;;;5020245;28;20083;-93
2023/07/01 03:11:35;;;;;;;2.30;1.10;;;14.80;99.90;;;;;;5021712;28;20043;-93
2023/07/01 03:14:00;;;;;;;2.58;1.10;;;14.80;99.90;;;;;;5028472;28;20032;-93
2023/07/01 03:16:26;;;;;;;2.70;1.40;;;14.80;99.90;;;;;;5030905;28;20777;-93
2023/07/01 03:18:52;;;;;;;5.43;0.90;;;14.80;99.90;;;;;;5020280;28;20029;-93
2023/07/01 03:21:17;;;;;;;1.33;0.70;;;14.80;99.90;;;;;;5019684;28;20029;-93
2023/07/01 03:23:43;;;;;;;5.78;1.33;;;14.80;99.90;;;;;;5019229;28;20180;-93
2023/07/01 03:26:09;;;;;;;2.72;1.02;;;14.80;99.90;;;;;;5037599;28;20061;-92
2023/07/01 03:28:34;;;;;;;6.38;1.10;;;14.80;99.90;;;;;;5019138;28;20029;-92
2023/07/01 03:31:00;;;;;;;2.20;0.90;;;14.80;99.90;;;;;;5017700;28;20073;-93
2023/07/01 03:33:26;;;;;;;2.05;0.80;;;14.80;99.90;;;;;;5017784;28;20021;-94
2023/07/01 03:35:51;;;;;;;5.22;1.17;;;14.80;99.90;;;;;;5018109;28;20480;-94
2023/07/01 03:38:17;;;;;;;2.70;0.70;;;14.70;99.90;;;;;;5015259;28;20037;-94
2023/07/01 03:40:42;;;;;;;5.93;0.88;;;14.70;99.90;;;;;;5011181;28;20033;-91
2023/07/01 03:43:08;;;;;;;5.28;0.85;;;14.70;99.90;;;;;;5016274;28;20112;-92
2023/07/01 03:45:34;;;;;;;1.95;1.05;;;14.70;99.90;;;;;;5014690;28;20026;-92
2023/07/01 03:47:59;;;;;;;1.70;1.00;;;14.80;99.90;;;;;;4998317;28;20030;-91
2023/07/01 03:50:25;;;;;;;7.60;1.50;;;14.80;99.90;;;;;;4998609;28;20532;-92
2023/07/01 03:52:51;;;;;;;2.75;1.30;;;14.70;99.90;;;;;;5013031;28;20025;-92
2023/07/01 03:55:18;;;;;;;5.65;1.40;;;14.70;99.90;;;;;;5017869;28;20079;-93
2023/07/01 03:57:43;;;;;;;3.92;1.20;;;14.70;99.90;;;;;;5016271;28;20033;-92
2023/07/01 04:00:18;;;;;;;8.27;1.35;;;14.70;99.90;;;;;;5019519;28;20034;-93
2023/07/01 04:02:49;;;;;;;5.40;1.48;;;14.70;99.90;;;;;;5018104;28;20064;-94
2023/07/01 04:05:16;;;;;;;7.18;1.38;;;14.70;99.90;;;;;;5017213;28;20022;-95
2023/07/01 04:07:43;;;;;;;4.32;1.08;;;14.60;99.90;;;;;;5017004;28;20026;-94
2023/07/01 04:10:10;;;;;;;3.65;0.75;;;14.60;99.90;;;;;;5017084;28;20223;-91
2023/07/01 04:12:37;;;;;;;3.85;0.80;;;14.60;99.90;;;;;;5017114;28;20033;-93
2023/07/01 04:15:09;;;;;;;4.95;0.63;;;14.60;99.90;;;;;;5017041;28;20026;-93
2023/07/01 04:17:36;;;;;;;4.50;1.25;;;14.60;99.90;;;;;;5017016;28;20025;-94
2023/07/01 04:20:03;;;;;;;6.57;1.17;;;14.60;99.90;;;;;;5017488;28;20111;-93
2023/07/01 04:22:29;;;;;;;6.05;1.38;;;14.60;99.90;;;;;;5018247;28;20030;-93
2023/07/01 04:24:55;;;;;;;4.00;1.05;;;14.60;99.90;;;;;;5034192;28;20032;-92
2023/07/01 04:27:20;;;;;;;4.57;1.10;;;14.50;99.90;;;;;;5036530;28;20021;-93
2023/07/01 04:29:46;;;;;;;4.55;1.20;;;14.50;99.90;;;;;;5032359;28;20113;-94
2023/07/01 04:32:11;;;;;;;2.78;0.93;;;14.50;99.90;;;;;;5024545;28;20041;-94
2023/07/01 04:34:37;;;;;;;5.13;1.05;;;14.50;99.90;;;;;;5034395;28;20036;-92
2023/07/01 04:37:03;;;;;;;4.53;0.88;;;14.50;99.90;;;;;;5016419;28;20694;-93
2023/07/01 04:39:29;;;;;;;3.25;1.10;;;14.50;99.90;;;;;;5016197;28;20112;-91
2023/07/01 04:41:55;;;;;;;6.35;1.48;;;14.50;99.90;;;;;;5033533;28;20025;-90
2023/07/01 04:44:23;;;;;;;3.55;1.40;;;14.50;99.90;;;;;;5016068;28;20087;-90
2023/07/01 04:46:50;;;;;;;8.85;1.42;;;14.50;99.90;;;;;;5016035;28;20026;-94
2023/07/01 04:49:15;;;;;;;9.13;1.30;;;14.50;99.90;;;;;;5016004;28;20030;-90
2023/07/01 04:51:42;;;;;;;6.05;1.13;;;14.50;99.90;;;;;;5016259;28;20053;-91
2023/07/01 04:54:08;;;;;;;3.97;1.15;;;14.50;99.90;;;;;;5016517;28;20432;-90
2023/07/01 04:56:35;;;;;;;8.55;1.33;;;14.50;99.90;;;;;;5035355;28;20060;-94
2023/07/01 04:59:01;;;;;;;3.20;1.33;;;14.50;99.90;;;;;;5048461;28;20028;-94
2023/07/01 05:01:26;;;;;;;6.45;1.30;;;14.50;99.90;;;;;;5020256;28;20085;-92
2023/07/01 05:03:52;;;;;;;3.72;1.05;;;14.50;99.90;;;;;;5015987;28;20427;-90
2023/07/01 05:06:18;;;;;;;5.20;1.08;;;14.50;99.90;;;;;;5033520;28;20037;-93
2023/07/01 05:08:44;;;;;;;5.10;1.10;;;14.50;99.90;;;;;;5015802;28;20503;-94
2023/07/01 05:11:09;;;;;;;4.55;1.02;;;14.50;99.90;;;;;;5032999;28;20503;-94
2023/07/01 05:13:35;;;;;;;6.30;0.80;;;14.50;99.90;;;;;;5015833;28;20026;-93
2023/07/01 05:16:02;;;;;;;6.38;0.70;;;14.50;99.90;;;;;;5015315;28;20117;-93
2023/07/01 05:18:28;;;;;;;2.75;0.80;;;14.50;99.90;;;;;;5015716;28;20030;-93
2023/07/01 05:20:53;;;;;;;3.97;0.93;;;14.40;99.90;;;;;;5033185;28;20033;-93
2023/07/01 05:23:19;;;;;;;5.68;0.88;;;14.40;99.90;;;;;;5015525;28;20089;-94
2023/07/01 05:25:45;;;;;;;3.20;0.90;;;14.40;99.90;;;;;;5015404;28;20032;-93
2023/07/01 05:28:11;;;;;;;4.97;1.08;;;14.40;99.90;;;;;;5015444;28;20493;-93
2023/07/01 05:30:37;;;;;;;3.78;0.95;;;14.40;99.90;;;;;;5033201;28;20051;-93
2023/07/01 05:33:03;;;;;;;7.13;1.40;;;14.40;99.90;;;;;;5032769;28;20135;-93
2023/07/01 05:35:28;;;;;;;7.00;1.13;;;14.40;99.90;;;;;;5015619;28;20075;-91
2023/07/01 05:37:54;;;;;;;3.92;1.30;;;14.40;99.90;;;;;;5015854;28;20500;-94
2023/07/01 05:40:20;;;;;;;2.63;0.77;;;14.30;99.90;;;;;;5015953;28;20029;-93
2023/07/01 05:42:45;;;;;;;3.97;0.80;;;14.30;99.90;;;;;;5033179;28;20024;-92
2023/07/01 05:45:12;;;;;;;9.07;1.15;;;14.30;99.90;;;;;;5016486;28;20087;-94
2023/07/01 05:47:38;;;;;;;4.20;0.90;;;14.30;99.90;;;;;;5016365;28;20547;-91
2023/07/01 05:50:04;;;;;;;3.95;1.08;;;14.20;99.90;;;;;;5016680;28;20056;-94
2023/07/01 05:52:30;;;;;;;6.13;1.00;;;14.30;99.90;;;;;;5016815;28;20041;-93
2023/07/01 05:54:56;;;;;;;4.63;1.02;;;14.30;99.90;;;;;;5032274;28;20028;-94
2023/07/01 05:57:22;;;;;;;4.00;0.93;;;14.30;99.90;;;;;;5041762;28;20037;-91
2023/07/01 05:59:47;;;;;;;6.43;0.90;;;14.30;99.90;;;;;;5043805;28;20120;-93
2023/07/01 06:02:13;;;;;;;4.65;0.88;;;14.30;99.90;;;;;;5043587;28;20114;-94
2023/07/01 06:04:39;;;;;;;2.53;1.00;;;14.30;99.90;;;;;;5060398;28;20022;-92
2023/07/01 06:07:04;;;;;;;4.00;0.60;;;14.30;99.90;;;;;;5037181;28;20051;-93
2023/07/01 06:09:30;;;;;;;6.32;2.25;;;14.30;99.90;;;;;;5027699;28;20469;-90
2023/07/01 06:11:56;;;;;;;4.55;0.90;;;14.30;99.90;;;;;;5024403;28;20076;-93
2023/07/01 06:14:21;;;;;;;3.10;0.63;;;14.30;99.90;;;;;;5022464;28;20026;-93
2023/07/01 06:16:47;;;;;;;4.13;0.70;;;14.30;99.90;;;;;;5020564;28;20088;-94
2023/07/01 06:19:13;;;;;;;4.97;1.35;;;14.30;99.90;;;;;;5020266;28;20029;-92
2023/07/01 06:21:38;;;;;;;4.28;0.88;;;14.40;99.90;;;;;;5006441;28;20059;-93
2023/07/01 06:24:04;;;;;;;3.80;0.50;;;14.40;99.90;;;;;;5009788;28;20110;-93
2023/07/01 06:26:30;;;;;;;2.95;0.73;;;14.40;99.90;;;;;;4992092;28;20084;-94
2023/07/01 06:28:55;;;;;;;3.20;0.63;;;14.30;99.90;;;;;;5000191;28;20093;-94
2023/07/01 06:31:21;;;;;;;2.15;0.65;;;14.40;99.90;;;;;;4999963;28;20203;-94
2023/07/01 06:33:47;;;;;;;2.00;0.57;;;14.40;99.90;;;;;;4999537;28;20523;-95
2023/07/01 06:36:14;;;;;;;1.73;0.60;;;14.40;99.90;;;;;;4999406;28;20022;-93
2023/07/01 06:38:40;;;;;;;4.93;0.80;;;14.40;99.90;;;;;;5000422;28;20049;-92
2023/07/01 06:41:06;;;;;;;3.15;0.93;;;14.40;99.90;;;;;;5007560;28;20049;-93
2023/07/01 06:43:32;;;;;;;6.25;0.80;;;14.40;99.90;;;;;;5024332;28;20086;-93
2023/07/01 06:45:59;;;;;;;6.05;1.20;;;14.50;99.90;;;;;;4999641;28;20726;-92
2023/07/01 06:48:25;;;;;;;4.75;0.90;;;14.50;99.90;;;;;;5012621;28;20030;-93
2023/07/01 06:50:50;;;;;;;4.05;0.93;;;14.50;99.90;;;;;;5009406;28;20113;-93
2023/07/01 06:53:16;;;;;;;4.88;1.02;;;14.50;99.90;;;;;;5009184;28;20022;-92
2023/07/01 06:55:41;;;;;;;5.72;0.93;;;14.50;99.90;;;;;;5039240;28;20091;-94
2023/07/01 06:58:07;;;;;;;5.30;1.20;;;14.50;99.90;;;;;;5036350;28;20026;-91
2023/07/01 07:00:33;;;;;;;5.55;1.10;;;14.50;99.90;;;;;;5014251;28;20049;-93
2023/07/01 07:03:00;;;;;;;6.68;1.42;;;14.50;99.90;;;;;;5022410;28;20022;-91
2023/07/01 07:05:26;;;;;;;3.50;0.90;;;14.50;99.90;;;;;;5027566;28;20167;-93
2023/07/01 07:07:52;;;;;;;12.07;1.10;;;14.50;99.90;;;;;;5029374;28;20431;-93
2023/07/01 07:10:18;;;;;;;7.30;1.00;;;14.50;99.90;;;;;;5023911;28;20404;-93
2023/07/01 07:12:44;;;;;;;3.67;1.00;;;14.50;99.90;;;;;;5038564;28;20026;-93
2023/07/01 07:15:10;;;;;;;4.93;0.93;;;14.60;99.90;;;;;;5020336;28;20072;-93
2023/07/01 07:17:36;;;;;;;5.60;1.00;;;14.60;99.90;;;;;;5019776;28;20029;-93
2023/07/01 07:20:01;;;;;;;1.63;0.65;;;14.60;99.90;;;;;;5019977;28;20032;-93
2023/07/01 07:22:27;;;;;;;2.10;0.77;;;14.60;99.90;;;;;;5036020;28;20113;-92
2023/07/01 07:24:55;;;;;;;4.22;0.82;;;14.70;99.90;;;;;;5015108;28;20025;-91
2023/07/01 07:27:21;;;;;;;4.57;0.85;;;14.60;99.90;;;;;;5001699;28;20026;-92
2023/07/01 07:29:46;;;;;;;2.20;0.40;;;14.70;99.90;;;;;;5005115;28;20024;-94
2023/07/01 07:32:12;;;;;;;2.63;0.65;;;14.70;99.90;;;;;;5003563;28;20084;-93
2023/07/01 07:34:38;;;;;;;1.85;0.40;;;14.70;99.90;;;;;;5010825;28;20464;-93
2023/07/01 07:37:05;;;;;;;2.08;0.57;;;14.60;99.90;;;;;;5019057;28;20037;-92
2023/07/01 07:39:31;;;;;;;4.00;0.75;;;14.70;99.90;;;;;;5006905;28;20084;-93
2023/07/01 07:41:56;;;;;;;9.02;0.90;;;14.70;99.90;;;;;;5012778;28;20014;-92
2023/07/01 07:44:22;;;;;;;4.75;1.00;;;14.80;99.90;;;;;;5019021;28;20026;-91
2023/07/01 07:46:48;;;;;;;6.03;1.15;;;14.80;99.90;;;;;;5032564;28;20029;-92
2023/07/01 07:49:14;;;;;;;5.55;0.95;;;14.90;99.90;;;;;;5003028;28;20056;-93
2023/07/01 07:51:39;;;;;;;5.75;1.02;;;15.00;99.90;;;;;;5015320;28;20054;-93
2023/07/01 07:54:05;;;;;;;4.93;0.80;;;15.10;99.90;;;;;;5002845;28;20083;-93
2023/07/01 07:56:31;;;;;;;5.75;1.20;;;15.20;99.90;;;;;;5012936;28;20037;-92
2023/07/01 07:58:56;;;;;;;5.15;1.17;;;15.30;99.90;;;;;;5017171;28;20477;-93
2023/07/01 08:01:22;;;;;;;3.42;0.55;;;15.40;99.90;;;;;;5020889;28;20424;-90
2023/07/01 08:03:48;;;;;;;3.80;0.63;;;15.40;99.90;;;;;;5035544;28;20052;-90
2023/07/01 08:06:13;;;;;;;2.28;0.77;;;15.40;99.90;;;;;;5015898;28;20060;-91
2023/07/01 08:08:41;;;;;;;5.70;0.90;;;15.40;99.90;;;;;;5014903;28;20073;-91
2023/07/01 08:11:19;;;;;;;;;;;;;;;;;;;;;
2023/07/01 08:13:49;;;;;;;3.85;0.93;;;15.40;99.90;;;;;;5033696;28;20388;-91
2023/07/01 08:16:14;;;;;;;2.63;0.70;;;15.40;99.90;;;;;;5034479;28;20460;-91
2023/07/01 08:18:43;;;;;;;4.28;0.70;;;15.40;99.90;;;;;;5017453;28;20112;-91
2023/07/01 08:21:09;;;;;;;5.60;1.15;;;15.40;99.90;;;;;;5035450;28;20029;-92
2023/07/01 08:23:35;;;;;;;6.30;1.20;;;15.30;99.90;;;;;;4999393;28;20113;-94
2023/07/01 08:26:03;;;;;;;2.90;0.70;;;15.20;99.90;;;;;;5025837;28;20045;-94
2023/07/01 08:28:31;;;;;;;7.57;1.70;;;15.10;99.90;;;;;;5024289;28;20052;-93
2023/07/01 08:30:58;;;;;;;2.63;0.88;;;15.00;99.90;;;;;;5015337;28;20033;-92
2023/07/01 08:33:28;;;;;;;4.18;1.10;;;14.90;99.90;;;;;;5010842;28;20040;-92
2023/07/01 08:35:53;;;;;;;4.50;1.05;;;14.90;99.90;;;;;;5017047;28;20045;-91
2023/07/01 08:38:19;;;;;;;5.68;1.00;;;14.80;99.90;;;;;;5034007;28;20029;-90
2023/07/01 08:40:47;;;;;;;5.50;1.30;;;14.80;99.90;;;;;;5033838;28;20063;-91
2023/07/01 08:43:12;;;;;;;3.13;1.00;;;14.80;99.90;;;;;;5016090;28;20538;-89
2023/07/01 08:45:38;;;;;;;4.35;0.88;;;14.80;99.90;;;;;;5014467;28;20025;-90
2023/07/01 08:48:06;;;;;;;5.05;1.20;;;14.70;99.90;;;;;;5015939;28;20025;-91
2023/07/01 08:50:48;;;;;;;7.55;1.10;;;14.70;99.90;;;;;;5024794;28;20034;-91
2023/07/01 08:53:15;;;;;;;9.30;1.45;;;14.70;99.90;;;;;;5012564;28;20060;-91
2023/07/01 08:55:41;;;;;;;8.85;1.25;;;14.70;99.90;;;;;;5014821;28;20033;-92
2023/07/01 08:58:08;;;;;;;4.85;0.95;;;14.70;99.90;;;;;;5016037;28;20084;-92
2023/07/01 09:00:35;;;;;;;8.20;1.02;;;14.70;99.90;;;;;;5018151;28;20056;-92
2023/07/01 09:03:03;;;;;;;4.38;1.20;;;14.80;99.90;;;;;;5042824;28;20025;-91
2023/07/01 09:05:29;;;;;;;4.72;0.85;;;14.80;99.90;;;;;;5026065;28;20028;-92
2023/07/01 09:07:55;;;;;;;4.18;1.00;;;14.80;99.90;;;;;;5022180;28;20037;-93
2023/07/01 09:10:20;;;;;;;4.05;0.90;;;14.80;99.90;;;;;;5040278;28;20651;-94
2023/07/01 09:12:46;;;;;;;3.97;0.80;;;14.80;99.90;;;;;;5036625;28;20025;-93
2023/07/01 09:15:12;;;;;;;7.07;1.00;;;14.80;99.90;;;;;;5035704;28;20033;-92
2023/07/01 09:17:40;;;;;;;3.08;1.02;;;14.70;99.90;;;;;;5039177;28;20045;-92
2023/07/01 09:20:08;;;;;;;5.35;0.82;;;14.70;99.90;;;;;;5049989;28;20018;-90
2023/07/01 09:22:36;;;;;;;3.10;0.55;;;14.70;99.90;;;;;;5052940;28;20014;-90
2023/07/01 09:25:02;;;;;;;1.27;0.50;;;14.60;99.90;;;;;;5043046;28;20097;-92
2023/07/01 09:27:40;;;;;;;4.82;0.80;;;14.60;99.90;;;;;;5052439;28;20040;-93
2023/07/01 09:30:27;;;;;;;1.73;0.80;;;14.50;99.90;;;;;;5031052;28;20173;-91
2023/07/01 09:33:10;;;;;;;2.17;0.60;;;14.50;99.90;;;;;;5020876;28;20033;-93
2023/07/01 09:35:43;;;;;;;2.83;0.80;;;14.50;99.90;;;;;;5021746;28;20089;-92
2023/07/01 09:38:09;;;;;;;6.35;1.98;;;14.50;99.90;;;;;;5026348;28;20512;-90
2023/07/01 09:40:35;;;;;;;4.93;0.70;;;14.40;99.90;;;;;;5022313;28;20048;-95
2023/07/01 09:43:01;;;;;;;3.55;1.27;;;14.50;99.90;;;;;;5036704;28;20053;-93
2023/07/01 09:45:27;;;;;;;1.60;0.73;;;14.50;99.90;;;;;;5030094;28;20104;-93
2023/07/01 09:47:52;;;;;;;3.08;0.88;;;14.50;99.90;;;;;;5014357;28;20483;-90
2023/07/01 09:50:21;;;;;;;7.45;1.10;;;14.50;99.90;;;;;;5017295;28;20108;-91
2023/07/01 09:52:48;;;;;;;2.17;0.85;;;14.60;99.90;;;;;;5015195;28;20542;-91
2023/07/01 09:55:14;;;;;;;6.35;1.30;;;14.70;99.90;;;;;;5007397;28;20073;-93
2023/07/01 09:57:41;;;;;;;3.78;1.30;;;14.80;99.90;;;;;;5017004;28;20425;-91
2023/07/01 10:00:10;;;;;;;3.58;1.50;;;14.90;99.90;;;;;;5017325;28;20032;-92
2023/07/01 10:02:35;;;;;;;2.90;1.23;;;15.10;99.90;;;;;;5033169;28;20049;-91
2023/07/01 10:05:02;;;;;;;6.38;1.70;;;15.30;99.90;;;;;;5016943;28;20029;-91
2023/07/01 10:07:28;;;;;;;3.45;1.30;;;15.50;99.90;;;;;;5029278;28;20032;-92
2023/07/01 10:09:53;;;;;;;7.32;1.33;;;15.60;99.90;;;;;;5020486;28;20025;-93
2023/07/01 10:12:20;;;;;;;7.53;1.25;;;15.80;99.90;;;;;;5024444;28;20033;-92
2023/07/01 10:14:51;;;;;;;2.38;1.10;;;16.00;99.90;;;;;;5038929;28;20075;-93
2023/07/01 10:17:18;;;;;;;4.95;1.20;;;16.20;99.90;;;;;;5024376;28;20022;-92
2023/07/01 10:19:46;;;;;;;4.90;1.23;;;16.40;99.90;;;;;;5012831;28;20026;-92
2023/07/01 10:22:25;;;;;;;3.58;0.90;;;16.40;99.90;;;;;;5013411;28;20432;-91
2023/07/01 10:25:02;;;;;;;1.75;1.10;;;16.50;99.90;;;;;;5010749;28;20037;-93
2023/07/01 10:27:43;;;;;;;4.65;1.05;;;16.50;99.90;;;;;;5015937;28;20029;-90
2023/07/01 10:30:12;;;;;;;4.30;1.00;;;16.60;99.90;;;;;;5024899;28;20034;-91
2023/07/01 10:32:38;;;;;;;2.70;0.80;;;16.70;99.90;;;;;;5027989;28;20786;-92
2023/07/01 10:35:04;;;;;;;5.78;1.10;;;17.00;99.90;;;;;;5010188;28;20046;-91
2023/07/01 10:37:31;;;;;;;1.58;0.73;;;17.10;99.90;;;;;;5018038;28;20057;-91
2023/07/01 10:39:58;;;;;;;7.40;0.90;;;17.30;99.90;;;;;;5041812;28;20037;-92
2023/07/01 10:42:33;;;;;;;3.95;0.90;;;17.50;99.90;;;;;;5019850;28;20026;-91
2023/07/01 10:45:11;;;;;;;6.70;1.20;;;17.80;99.90;;;;;;5018188;28;20036;-92
2023/07/01 10:48:11;;;;;;;3.63;1.20;;;18.10;99.90;;;;;;5024361;28;20022;-95
2023/07/01 10:51:10;;;;;;;1.23;0.55;;;18.30;99.90;;;;;;5058722;28;20037;-91
2023/07/01 10:54:07;;;;;;;3.05;0.70;;;18.60;99.90;;;;;;5053652;28;20022;-95
2023/07/01 10:56:35;;;;;;;2.13;0.65;;;18.70;99.90;;;;;;5048970;28;20026;-94
2023/07/01 10:59:40;;;;;;;;;;;;;;;;;;;;;
2023/07/01 11:05:29;;;;;;;2.10;0.90;;;18.60;99.90;;;;;;4975798;28;20052;-93
2023/07/01 11:08:06;;;;;;;1.50;0.60;;;18.40;99.90;;;;;;4966758;28;20047;-93
2023/07/01 11:10:42;;;;;;;4.00;0.90;;;18.30;99.90;;;;;;4964649;28;20034;-91
2023/07/01 11:13:09;;;;;;;5.40;1.50;;;18.30;99.90;;;;;;4979217;28;20027;-92
2023/07/01 11:15:40;;;;;;;4.88;0.95;;;18.30;99.90;;;;;;4981811;28;20023;-93
2023/07/01 11:18:06;;;;;;;3.83;0.95;;;18.20;99.90;;;;;;5000456;28;20048;-93
2023/07/01 11:20:53;;;;;;;3.65;1.10;;;18.20;99.90;;;;;;4965349;28;20043;-91
2023/07/01 11:23:21;;;;;;;2.70;0.85;;;18.30;99.90;;;;;;4961341;28;20039;-91
2023/07/01 11:25:47;;;;;;;2.60;0.80;;;18.50;99.90;;;;;;4968751;28;20038;-95
2023/07/01 11:28:38;;;;;;;1.48;0.52;;;18.80;99.90;;;;;;4964310;28;20102;-93
2023/07/01 11:31:18;;;;;;;2.78;0.75;;;19.10;99.90;;;;;;4967013;28;20030;-95
2023/07/01 11:33:48;;;;;;;2.50;0.80;;;19.10;98.00;;;;;;4991289;28;20230;-91
2023/07/01 11:36:20;;;;;;;5.00;0.90;;;19.00;98.30;;;;;;4968604;28;20016;-94
2023/07/01 11:38:48;;;;;;;2.85;0.65;;;19.00;98.30;;;;;;4975830;28;20035;-93
2023/07/01 11:41:20;;;;;;;4.38;0.57;;;18.90;98.10;;;;;;4982084;28;20037;-91
2023/07/01 11:43:47;;;;;;;4.97;0.68;;;18.80;98.30;;;;;;5041557;28;20030;-93
2023/07/01 11:46:14;;;;;;;3.65;0.90;;;18.80;98.60;;;;;;5029681;28;20120;-94
2023/07/01 11:48:41;;;;;;;1.85;0.70;;;18.70;98.10;;;;;;5051779;28;20030;-93
2023/07/01 11:51:10;;;;;;;4.18;1.50;;;18.70;98.10;;;;;;5039458;28;20100;-92
2023/07/01 11:53:56;;;;;;;1.85;1.05;;;18.90;98.20;;;;;;5039773;28;20105;-93
2023/07/01 11:56:22;;;;;;;4.70;1.60;;;19.10;97.50;;;;;;5029276;28;20025;-96
2023/07/01 11:58:48;;;;;;;3.67;1.60;;;19.20;95.90;;;;;;5020101;28;20044;-95
2023/07/01 12:01:24;;;;;;;2.10;1.58;;;19.30;95.50;;;;;;5026015;28;20030;-93
2023/07/01 12:03:53;;;;;;;2.17;1.48;;;19.20;95.30;;;;;;5020990;28;20022;-95
2023/07/01 12:06:24;;;;;;;3.30;1.70;;;19.20;95.40;;;;;;5001737;28;20039;-96
2023/07/01 12:08:50;;;;;;;2.42;1.48;;;19.20;95.40;;;;;;5017482;28;20304;-96
2023/07/01 12:11:17;;;;;;;3.38;1.80;;;19.10;94.60;;;;;;5017385;28;20093;-95
2023/07/01 12:13:43;;;;;;;5.00;1.38;;;19.00;93.90;;;;;;5015688;28;20086;-95
2023/07/01 12:16:08;;;;;;;1.80;1.20;;;18.90;94.40;;;;;;5015866;28;20034;-94
2023/07/01 12:18:34;;;;;;;2.95;1.70;;;19.00;94.80;;;;;;5028024;28;20026;-95
2023/07/01 12:21:00;;;;;;;3.38;1.58;;;19.00;94.90;;;;;;5023167;28;20025;-95
2023/07/01 12:23:27;;;;;;;1.95;1.30;;;19.00;95.10;;;;;;5016874;28;20040;-94
2023/07/01 12:25:54;;;;;;;4.18;1.55;;;19.00;95.10;;;;;;5016782;28;20097;-93
2023/07/01 12:28:20;;;;;;;3.03;1.90;;;18.90;94.60;;;;;;5023428;28;20025;-94
2023/07/01 12:30:46;;;;;;;2.47;1.50;;;18.60;93.80;;;;;;5007440;28;20034;-92
2023/07/01 12:33:12;;;;;;;3.67;1.80;;;18.40;94.30;;;;;;5009427;28;20018;-92
2023/07/01 12:35:41;;;;;;;3.80;1.42;;;18.20;95.10;;;;;;5009555;28;20022;-87
2023/07/01 12:38:11;;;;;;;7.22;1.88;;;18.20;96.30;;;;;;5015064;28;20018;-88
2023/07/01 12:40:37;;;;;;;3.88;1.75;;;18.30;97.50;;;;;;5020933;28;20014;-91
2023/07/01 12:43:02;;;;;;;4.00;1.40;;;18.60;98.20;;;;;;5012315;28;20036;-91
2023/07/01 12:45:28;;;;;;;4.45;1.63;;;18.80;98.30;;;;;;5008945;28;20037;-92
2023/07/01 12:47:55;;;;;;;3.92;1.52;;;19.00;98.30;;;;;;5013547;28;20090;-89
2023/07/01 12:50:21;;;;;;;3.75;1.77;;;19.10;97.90;;;;;;5036328;28;20010;-89
2023/07/01 12:52:55;;;;;;;3.67;1.73;;;19.10;97.90;;;;;;5003330;28;20037;-93
2023/07/01 12:55:21;;;;;;;2.90;1.63;;;19.10;97.60;;;;;;5003860;28;20031;-93